sensor_id;sensor_type;location;lat;lon;timestamp;pressure;altitude;pressure_sealevel;temperature;humidity
79538;BME280;68989;52.032;5.152;2023-12-04T00:01:29;101408.12;;;7.72;56.17
79538;BME280;68989;52.032;5.152;2023-12-04T00:03:56;101404.36;;;7.73;56.18
79538;BME280;68989;52.032;5.152;2023-12-04T00:06:23;101401.02;;;7.74;56.12
79538;BME280;68989;52.032;5.152;2023-12-04T00:08:51;101397.34;;;7.74;56.23
79538;BME280;68989;52.032;5.152;2023-12-04T00:11:17;101394.48;;;7.75;56.14
79538;BME280;68989;52.032;5.152;2023-12-04T00:13:46;101390.36;;;7.75;56.11
79538;BME280;68989;52.032;5.152;2023-12-04T00:16:13;101385.14;;;7.74;55.79
79538;BME280;68989;52.032;5.152;2023-12-04T00:18:40;101382.77;;;7.73;56.12
79538;BME280;68989;52.032;5.152;2023-12-04T00:21:07;101376.83;;;7.73;56.16
79538;BME280;68989;52.032;5.152;2023-12-04T00:23:35;101372.33;;;7.72;56.07
79538;BME280;68989;52.032;5.152;2023-12-04T00:26:03;101378.70;;;7.70;56.18
79538;BME280;68989;52.032;5.152;2023-12-04T00:28:30;101378.37;;;7.70;56.15
79538;BME280;68989;52.032;5.152;2023-12-04T00:30:58;101376.89;;;7.70;56.11
79538;BME280;68989;52.032;5.152;2023-12-04T00:33:25;101370.28;;;7.70;56.13
79538;BME280;68989;52.032;5.152;2023-12-04T00:35:52;101369.70;;;7.67;56.32
79538;BME280;68989;52.032;5.152;2023-12-04T00:38:19;101366.69;;;7.68;56.39
79538;BME280;68989;52.032;5.152;2023-12-04T00:40:46;101361.40;;;7.69;56.18
79538;BME280;68989;52.032;5.152;2023-12-04T00:43:13;101357.98;;;7.67;56.38
79538;BME280;68989;52.032;5.152;2023-12-04T00:45:40;101358.89;;;7.69;56.35
79538;BME280;68989;52.032;5.152;2023-12-04T00:48:07;101354.84;;;7.69;56.31
79538;BME280;68989;52.032;5.152;2023-12-04T00:50:35;101357.59;;;7.68;56.15
79538;BME280;68989;52.032;5.152;2023-12-04T00:53:02;101362.00;;;7.68;56.32
79538;BME280;68989;52.032;5.152;2023-12-04T00:55:29;101357.40;;;7.67;56.41
79538;BME280;68989;52.032;5.152;2023-12-04T00:57:57;101357.26;;;7.64;56.01
79538;BME280;68989;52.032;5.152;2023-12-04T01:00:24;101356.06;;;7.62;56.48
79538;BME280;68989;52.032;5.152;2023-12-04T01:02:52;101351.10;;;7.62;56.45
79538;BME280;68989;52.032;5.152;2023-12-04T01:05:18;101348.56;;;7.62;56.59
79538;BME280;68989;52.032;5.152;2023-12-04T01:07:46;101344.98;;;7.61;56.47
79538;BME280;68989;52.032;5.152;2023-12-04T01:10:13;101342.83;;;7.61;56.70
79538;BME280;68989;52.032;5.152;2023-12-04T01:12:40;101334.55;;;7.62;56.64
79538;BME280;68989;52.032;5.152;2023-12-04T01:15:08;101329.98;;;7.62;56.69
79538;BME280;68989;52.032;5.152;2023-12-04T01:17:35;101325.73;;;7.62;56.72
79538;BME280;68989;52.032;5.152;2023-12-04T01:20:02;101323.50;;;7.63;56.63
79538;BME280;68989;52.032;5.152;2023-12-04T01:22:29;101321.14;;;7.65;56.65
79538;BME280;68989;52.032;5.152;2023-12-04T01:24:56;101314.58;;;7.65;56.58
79538;BME280;68989;52.032;5.152;2023-12-04T01:27:23;101312.20;;;7.64;56.50
79538;BME280;68989;52.032;5.152;2023-12-04T01:29:50;101312.11;;;7.63;56.66
79538;BME280;68989;52.032;5.152;2023-12-04T01:32:18;101309.30;;;7.63;56.63
79538;BME280;68989;52.032;5.152;2023-12-04T01:34:46;101307.87;;;7.63;56.21
79538;BME280;68989;52.032;5.152;2023-12-04T01:37:13;101313.15;;;7.63;56.49
79538;BME280;68989;52.032;5.152;2023-12-04T01:39:40;101314.30;;;7.63;56.55
79538;BME280;68989;52.032;5.152;2023-12-04T01:42:07;101316.21;;;7.62;56.59
79538;BME280;68989;52.032;5.152;2023-12-04T01:44:34;101314.18;;;7.63;56.51
79538;BME280;68989;52.032;5.152;2023-12-04T01:47:02;101313.37;;;7.64;56.66
79538;BME280;68989;52.032;5.152;2023-12-04T01:49:29;101309.08;;;7.64;56.53
79538;BME280;68989;52.032;5.152;2023-12-04T01:51:57;101304.91;;;7.63;56.59
79538;BME280;68989;52.032;5.152;2023-12-04T01:54:24;101299.50;;;7.62;56.58
79538;BME280;68989;52.032;5.152;2023-12-04T01:56:52;101295.46;;;7.62;56.64
79538;BME280;68989;52.032;5.152;2023-12-04T01:59:19;101295.23;;;7.61;56.62
79538;BME280;68989;52.032;5.152;2023-12-04T02:04:45;101289.67;;;7.62;56.29
79538;BME280;68989;52.032;5.152;2023-12-04T02:07:13;101283.12;;;7.62;56.67
79538;BME280;68989;52.032;5.152;2023-12-04T02:09:51;101277.71;;;7.63;56.69
79538;BME280;68989;52.032;5.152;2023-12-04T02:12:24;101273.07;;;7.62;56.55
79538;BME280;68989;52.032;5.152;2023-12-04T02:14:57;101270.74;;;7.62;56.64
79538;BME280;68989;52.032;5.152;2023-12-04T02:17:27;101269.65;;;7.64;56.55
79538;BME280;68989;52.032;5.152;2023-12-04T02:20:01;101267.73;;;7.64;56.57
79538;BME280;68989;52.032;5.152;2023-12-04T02:22:28;101261.47;;;7.64;56.53
79538;BME280;68989;52.032;5.152;2023-12-04T02:24:56;101265.15;;;7.66;56.60
79538;BME280;68989;52.032;5.152;2023-12-04T02:27:33;101258.14;;;7.64;56.31
79538;BME280;68989;52.032;5.152;2023-12-04T02:30:07;101256.07;;;7.62;56.52
79538;BME280;68989;52.032;5.152;2023-12-04T02:32:44;101250.93;;;7.62;56.60
79538;BME280;68989;52.032;5.152;2023-12-04T02:35:13;101243.07;;;7.63;56.54
79538;BME280;68989;52.032;5.152;2023-12-04T02:37:41;101241.95;;;7.63;56.54
79538;BME280;68989;52.032;5.152;2023-12-04T02:40:11;101241.96;;;7.64;56.57
79538;BME280;68989;52.032;5.152;2023-12-04T02:42:40;101234.03;;;7.66;56.44
79538;BME280;68989;52.032;5.152;2023-12-04T02:45:13;101232.63;;;7.66;56.46
79538;BME280;68989;52.032;5.152;2023-12-04T02:47:45;101231.59;;;7.64;56.21
79538;BME280;68989;52.032;5.152;2023-12-04T02:50:13;101226.78;;;7.63;56.52
79538;BME280;68989;52.032;5.152;2023-12-04T02:52:40;101225.26;;;7.64;56.44
79538;BME280;68989;52.032;5.152;2023-12-04T02:55:09;101217.74;;;7.64;56.44
79538;BME280;68989;52.032;5.152;2023-12-04T02:57:37;101216.66;;;7.66;56.58
79538;BME280;68989;52.032;5.152;2023-12-04T03:00:05;101212.10;;;7.66;56.31
79538;BME280;68989;52.032;5.152;2023-12-04T03:02:33;101206.25;;;7.64;56.34
79538;BME280;68989;52.032;5.152;2023-12-04T03:05:06;101205.06;;;7.64;56.57
79538;BME280;68989;52.032;5.152;2023-12-04T03:07:33;101196.11;;;7.65;56.45
79538;BME280;68989;52.032;5.152;2023-12-04T03:10:00;101198.51;;;7.67;56.47
79538;BME280;68989;52.032;5.152;2023-12-04T03:12:28;101191.32;;;7.67;56.38
79538;BME280;68989;52.032;5.152;2023-12-04T03:14:55;101185.54;;;7.67;56.42
79538;BME280;68989;52.032;5.152;2023-12-04T03:17:22;101183.84;;;7.65;56.24
79538;BME280;68989;52.032;5.152;2023-12-04T03:19:49;101178.42;;;7.63;56.30
79538;BME280;68989;52.032;5.152;2023-12-04T03:22:17;101177.32;;;7.63;56.49
79538;BME280;68989;52.032;5.152;2023-12-04T03:24:46;101172.68;;;7.63;56.42
79538;BME280;68989;52.032;5.152;2023-12-04T03:27:13;101173.13;;;7.63;56.50
79538;BME280;68989;52.032;5.152;2023-12-04T03:29:40;101169.69;;;7.64;56.56
79538;BME280;68989;52.032;5.152;2023-12-04T03:32:07;101167.21;;;7.66;56.36
79538;BME280;68989;52.032;5.152;2023-12-04T03:34:34;101161.45;;;7.67;56.33
79538;BME280;68989;52.032;5.152;2023-12-04T03:37:01;101158.03;;;7.66;56.31
79538;BME280;68989;52.032;5.152;2023-12-04T03:39:28;101154.78;;;7.65;56.34
79538;BME280;68989;52.032;5.152;2023-12-04T03:41:55;101154.17;;;7.65;56.23
79538;BME280;68989;52.032;5.152;2023-12-04T03:44:22;101148.15;;;7.64;56.16
79538;BME280;68989;52.032;5.152;2023-12-04T03:46:49;101145.10;;;7.63;56.31
79538;BME280;68989;52.032;5.152;2023-12-04T03:49:16;101144.41;;;7.65;56.17
79538;BME280;68989;52.032;5.152;2023-12-04T03:51:43;101138.42;;;7.57;56.22
79538;BME280;68989;52.032;5.152;2023-12-04T03:54:09;101137.07;;;7.58;56.38
79538;BME280;68989;52.032;5.152;2023-12-04T03:56:37;101132.75;;;7.58;56.38
79538;BME280;68989;52.032;5.152;2023-12-04T03:59:04;101128.59;;;7.59;56.40
79538;BME280;68989;52.032;5.152;2023-12-04T04:01:31;101123.34;;;7.60;56.36
79538;BME280;68989;52.032;5.152;2023-12-04T04:03:58;101119.49;;;7.60;56.30
79538;BME280;68989;52.032;5.152;2023-12-04T04:06:25;101121.27;;;7.61;56.32
79538;BME280;68989;52.032;5.152;2023-12-04T04:08:52;101113.97;;;7.62;56.30
79538;BME280;68989;52.032;5.152;2023-12-04T04:11:20;101108.86;;;7.62;56.07
79538;BME280;68989;52.032;5.152;2023-12-04T04:13:47;101106.56;;;7.61;56.16
79538;BME280;68989;52.032;5.152;2023-12-04T04:16:15;101110.85;;;7.60;56.01
79538;BME280;68989;52.032;5.152;2023-12-04T04:18:42;101102.72;;;7.59;56.19
79538;BME280;68989;52.032;5.152;2023-12-04T04:21:09;101104.89;;;7.60;56.21
79538;BME280;68989;52.032;5.152;2023-12-04T04:23:36;101100.45;;;7.59;56.16
79538;BME280;68989;52.032;5.152;2023-12-04T04:26:04;101095.10;;;7.60;56.18
79538;BME280;68989;52.032;5.152;2023-12-04T04:28:31;101094.68;;;7.61;56.22
79538;BME280;68989;52.032;5.152;2023-12-04T04:30:58;101089.04;;;7.59;56.03
79538;BME280;68989;52.032;5.152;2023-12-04T04:33:25;101084.48;;;7.59;56.20
79538;BME280;68989;52.032;5.152;2023-12-04T04:35:52;101083.89;;;7.60;56.17
79538;BME280;68989;52.032;5.152;2023-12-04T04:38:19;101086.71;;;7.61;56.24
79538;BME280;68989;52.032;5.152;2023-12-04T04:40:46;101084.66;;;7.62;56.24
79538;BME280;68989;52.032;5.152;2023-12-04T04:43:12;101081.77;;;7.63;55.94
79538;BME280;68989;52.032;5.152;2023-12-04T04:45:40;101082.63;;;7.62;56.04
79538;BME280;68989;52.032;5.152;2023-12-04T04:48:07;101085.02;;;7.62;56.09
79538;BME280;68989;52.032;5.152;2023-12-04T04:50:34;101085.05;;;7.62;56.16
79538;BME280;68989;52.032;5.152;2023-12-04T04:53:01;101083.13;;;7.63;56.07
79538;BME280;68989;52.032;5.152;2023-12-04T04:55:28;101077.35;;;7.63;56.07
79538;BME280;68989;52.032;5.152;2023-12-04T04:57:56;101078.42;;;7.63;56.09
79538;BME280;68989;52.032;5.152;2023-12-04T05:00:22;101075.00;;;7.63;55.94
79538;BME280;68989;52.032;5.152;2023-12-04T05:02:49;101072.17;;;7.63;55.92
79538;BME280;68989;52.032;5.152;2023-12-04T05:05:16;101070.19;;;7.60;55.58
79538;BME280;68989;52.032;5.152;2023-12-04T05:07:44;101067.58;;;7.56;55.77
79538;BME280;68989;52.032;5.152;2023-12-04T05:10:11;101066.39;;;7.55;56.09
79538;BME280;68989;52.032;5.152;2023-12-04T05:12:38;101064.30;;;7.55;55.87
79538;BME280;68989;52.032;5.152;2023-12-04T05:15:06;101064.60;;;7.53;55.95
79538;BME280;68989;52.032;5.152;2023-12-04T05:17:33;101060.38;;;7.53;56.10
79538;BME280;68989;52.032;5.152;2023-12-04T05:20:00;101055.97;;;7.53;55.86
79538;BME280;68989;52.032;5.152;2023-12-04T05:22:27;101053.00;;;7.51;55.89
79538;BME280;68989;52.032;5.152;2023-12-04T05:24:55;101051.77;;;7.50;56.28
79538;BME280;68989;52.032;5.152;2023-12-04T05:27:22;101052.62;;;7.50;56.16
79538;BME280;68989;52.032;5.152;2023-12-04T05:29:49;101043.11;;;7.51;56.30
79538;BME280;68989;52.032;5.152;2023-12-04T05:32:16;101034.91;;;7.53;56.28
79538;BME280;68989;52.032;5.152;2023-12-04T05:34:42;101032.90;;;7.53;55.96
79538;BME280;68989;52.032;5.152;2023-12-04T05:37:10;101026.00;;;7.51;56.19
79538;BME280;68989;52.032;5.152;2023-12-04T05:39:37;101029.18;;;7.52;55.95
79538;BME280;68989;52.032;5.152;2023-12-04T05:42:04;101024.27;;;7.50;55.98
79538;BME280;68989;52.032;5.152;2023-12-04T05:44:33;101017.24;;;7.45;55.98
79538;BME280;68989;52.032;5.152;2023-12-04T05:47:00;101012.95;;;7.45;56.16
79538;BME280;68989;52.032;5.152;2023-12-04T05:49:27;101013.04;;;7.44;56.04
79538;BME280;68989;52.032;5.152;2023-12-04T05:51:54;101013.86;;;7.45;56.39
79538;BME280;68989;52.032;5.152;2023-12-04T05:54:21;101012.86;;;7.46;56.37
79538;BME280;68989;52.032;5.152;2023-12-04T05:56:49;101011.08;;;7.47;56.35
79538;BME280;68989;52.032;5.152;2023-12-04T05:59:21;101009.85;;;7.50;56.24
79538;BME280;68989;52.032;5.152;2023-12-04T06:01:48;101002.27;;;7.49;55.70
79538;BME280;68989;52.032;5.152;2023-12-04T06:04:15;101007.11;;;7.49;56.07
79538;BME280;68989;52.032;5.152;2023-12-04T06:06:43;101006.20;;;7.48;55.66
79538;BME280;68989;52.032;5.152;2023-12-04T06:09:10;100997.93;;;7.41;55.94
79538;BME280;68989;52.032;5.152;2023-12-04T06:11:37;100997.12;;;7.38;56.17
79538;BME280;68989;52.032;5.152;2023-12-04T06:14:05;100996.91;;;7.39;56.20
79538;BME280;68989;52.032;5.152;2023-12-04T06:16:31;100993.54;;;7.42;56.31
79538;BME280;68989;52.032;5.152;2023-12-04T06:18:59;100996.14;;;7.43;56.08
79538;BME280;68989;52.032;5.152;2023-12-04T06:21:26;100992.75;;;7.45;56.36
79538;BME280;68989;52.032;5.152;2023-12-04T06:23:54;100985.36;;;7.47;56.13
79538;BME280;68989;52.032;5.152;2023-12-04T06:26:22;100982.08;;;7.48;55.92
79538;BME280;68989;52.032;5.152;2023-12-04T06:28:49;100980.35;;;7.49;56.21
79538;BME280;68989;52.032;5.152;2023-12-04T06:31:21;100974.06;;;7.51;56.26
79538;BME280;68989;52.032;5.152;2023-12-04T06:33:49;100970.41;;;7.53;56.19
79538;BME280;68989;52.032;5.152;2023-12-04T06:36:17;100969.36;;;7.52;55.97
79538;BME280;68989;52.032;5.152;2023-12-04T06:38:52;100967.34;;;7.52;56.01
79538;BME280;68989;52.032;5.152;2023-12-04T06:41:20;100966.96;;;7.50;55.93
79538;BME280;68989;52.032;5.152;2023-12-04T06:43:48;100965.55;;;7.49;56.16
79538;BME280;68989;52.032;5.152;2023-12-04T06:46:16;100964.02;;;7.50;55.93
79538;BME280;68989;52.032;5.152;2023-12-04T06:48:44;100955.72;;;7.49;55.79
79538;BME280;68989;52.032;5.152;2023-12-04T06:51:11;100952.03;;;7.50;56.04
79538;BME280;68989;52.032;5.152;2023-12-04T06:53:38;100946.00;;;7.49;55.77
79538;BME280;68989;52.032;5.152;2023-12-04T06:56:06;100944.99;;;7.49;55.96
79538;BME280;68989;52.032;5.152;2023-12-04T06:58:34;100950.31;;;7.50;55.89
79538;BME280;68989;52.032;5.152;2023-12-04T07:01:01;100947.95;;;7.51;56.12
79538;BME280;68989;52.032;5.152;2023-12-04T07:03:28;100946.27;;;7.51;56.01
79538;BME280;68989;52.032;5.152;2023-12-04T07:05:55;100943.34;;;7.52;55.87
79538;BME280;68989;52.032;5.152;2023-12-04T07:08:23;100941.33;;;7.52;55.73
79538;BME280;68989;52.032;5.152;2023-12-04T07:10:50;100938.87;;;7.52;55.86
79538;BME280;68989;52.032;5.152;2023-12-04T07:13:16;100940.63;;;7.50;55.94
79538;BME280;68989;52.032;5.152;2023-12-04T07:15:44;100940.48;;;7.51;56.07
79538;BME280;68989;52.032;5.152;2023-12-04T07:18:11;100939.57;;;7.53;55.99
79538;BME280;68989;52.032;5.152;2023-12-04T07:20:37;100934.75;;;7.55;56.03
79538;BME280;68989;52.032;5.152;2023-12-04T07:23:05;100938.01;;;7.57;56.02
79538;BME280;68989;52.032;5.152;2023-12-04T07:25:32;100928.78;;;7.58;55.84
79538;BME280;68989;52.032;5.152;2023-12-04T07:27:58;100927.70;;;7.60;55.78
79538;BME280;68989;52.032;5.152;2023-12-04T07:30:26;100929.07;;;7.54;55.12
79538;BME280;68989;52.032;5.152;2023-12-04T07:32:53;100929.71;;;7.50;55.52
79538;BME280;68989;52.032;5.152;2023-12-04T07:35:21;100929.35;;;7.48;55.43
79538;BME280;68989;52.032;5.152;2023-12-04T07:37:49;100924.57;;;7.47;55.76
79538;BME280;68989;52.032;5.152;2023-12-04T07:40:16;100922.49;;;7.48;55.87
79538;BME280;68989;52.032;5.152;2023-12-04T07:42:44;100923.04;;;7.48;55.67
79538;BME280;68989;52.032;5.152;2023-12-04T07:45:11;100924.57;;;7.43;55.63
79538;BME280;68989;52.032;5.152;2023-12-04T07:47:38;100921.78;;;7.44;55.87
79538;BME280;68989;52.032;5.152;2023-12-04T07:50:06;100916.85;;;7.47;55.95
79538;BME280;68989;52.032;5.152;2023-12-04T07:52:34;100919.02;;;7.46;55.76
79538;BME280;68989;52.032;5.152;2023-12-04T07:55:01;100924.99;;;7.47;55.75
79538;BME280;68989;52.032;5.152;2023-12-04T07:57:30;100922.94;;;7.49;55.79
79538;BME280;68989;52.032;5.152;2023-12-04T07:59:57;100925.20;;;7.51;55.80
79538;BME280;68989;52.032;5.152;2023-12-04T08:02:23;100919.51;;;7.53;55.59
79538;BME280;68989;52.032;5.152;2023-12-04T08:04:50;100919.89;;;7.54;55.66
79538;BME280;68989;52.032;5.152;2023-12-04T08:07:18;100916.56;;;7.55;55.63
79538;BME280;68989;52.032;5.152;2023-12-04T08:09:45;100915.89;;;7.54;55.26
79538;BME280;68989;52.032;5.152;2023-12-04T08:12:12;100912.18;;;7.55;55.60
79538;BME280;68989;52.032;5.152;2023-12-04T08:14:39;100914.09;;;7.55;55.55
79538;BME280;68989;52.032;5.152;2023-12-04T08:17:06;100910.99;;;7.53;55.08
79538;BME280;68989;52.032;5.152;2023-12-04T08:19:34;100909.04;;;7.49;55.28
79538;BME280;68989;52.032;5.152;2023-12-04T08:22:01;100912.51;;;7.47;55.44
79538;BME280;68989;52.032;5.152;2023-12-04T08:24:27;100915.63;;;7.47;55.57
79538;BME280;68989;52.032;5.152;2023-12-04T08:26:56;100914.17;;;7.49;55.58
79538;BME280;68989;52.032;5.152;2023-12-04T08:29:23;100916.17;;;7.52;55.46
79538;BME280;68989;52.032;5.152;2023-12-04T08:31:50;100902.86;;;7.53;55.37
79538;BME280;68989;52.032;5.152;2023-12-04T08:34:17;100902.44;;;7.54;55.42
79538;BME280;68989;52.032;5.152;2023-12-04T08:36:44;100894.75;;;7.54;55.24
79538;BME280;68989;52.032;5.152;2023-12-04T08:39:11;100893.75;;;7.53;55.47
79538;BME280;68989;52.032;5.152;2023-12-04T08:41:38;100882.92;;;7.52;54.99
79538;BME280;68989;52.032;5.152;2023-12-04T08:44:05;100881.92;;;7.48;55.30
79538;BME280;68989;52.032;5.152;2023-12-04T08:46:32;100877.18;;;7.48;54.94
79538;BME280;68989;52.032;5.152;2023-12-04T08:48:58;100870.98;;;7.45;54.95
79538;BME280;68989;52.032;5.152;2023-12-04T08:51:26;100865.79;;;7.39;54.61
79538;BME280;68989;52.032;5.152;2023-12-04T08:53:54;100865.58;;;7.41;55.15
79538;BME280;68989;52.032;5.152;2023-12-04T08:56:21;100861.91;;;7.42;55.29
79538;BME280;68989;52.032;5.152;2023-12-04T08:58:48;100866.64;;;7.43;55.26
79538;BME280;68989;52.032;5.152;2023-12-04T09:01:17;100863.18;;;7.47;55.45
79538;BME280;68989;52.032;5.152;2023-12-04T09:03:44;100856.15;;;7.49;55.26
79538;BME280;68989;52.032;5.152;2023-12-04T09:06:11;100858.47;;;7.50;55.14
79538;BME280;68989;52.032;5.152;2023-12-04T09:08:39;100859.48;;;7.50;54.71
79538;BME280;68989;52.032;5.152;2023-12-04T09:11:07;100858.11;;;7.50;55.06
79538;BME280;68989;52.032;5.152;2023-12-04T09:13:34;100853.54;;;7.51;55.19
79538;BME280;68989;52.032;5.152;2023-12-04T09:16:01;100854.08;;;7.53;55.10
79538;BME280;68989;52.032;5.152;2023-12-04T09:18:28;100853.52;;;7.57;55.36
79538;BME280;68989;52.032;5.152;2023-12-04T09:20:55;100850.82;;;7.60;55.25
79538;BME280;68989;52.032;5.152;2023-12-04T09:23:22;100852.05;;;7.63;55.32
79538;BME280;68989;52.032;5.152;2023-12-04T09:25:49;100851.80;;;7.67;55.17
79538;BME280;68989;52.032;5.152;2023-12-04T09:28:17;100846.81;;;7.70;55.21
79538;BME280;68989;52.032;5.152;2023-12-04T09:30:45;100849.79;;;7.71;55.00
79538;BME280;68989;52.032;5.152;2023-12-04T09:33:12;100855.64;;;7.72;54.65
79538;BME280;68989;52.032;5.152;2023-12-04T09:35:38;100854.99;;;7.70;54.61
79538;BME280;68989;52.032;5.152;2023-12-04T09:38:05;100851.81;;;7.71;54.65
79538;BME280;68989;52.032;5.152;2023-12-04T09:40:32;100856.22;;;7.73;54.83
79538;BME280;68989;52.032;5.152;2023-12-04T09:43:00;100856.42;;;7.74;54.60
79538;BME280;68989;52.032;5.152;2023-12-04T09:45:29;100855.12;;;7.74;54.58
79538;BME280;68989;52.032;5.152;2023-12-04T09:47:58;100857.14;;;7.69;53.90
79538;BME280;68989;52.032;5.152;2023-12-04T09:50:25;100855.05;;;7.66;54.16
79538;BME280;68989;52.032;5.152;2023-12-04T09:52:54;100856.22;;;7.63;54.39
79538;BME280;68989;52.032;5.152;2023-12-04T09:55:22;100854.57;;;7.66;54.70
79538;BME280;68989;52.032;5.152;2023-12-04T09:57:49;100850.59;;;7.69;54.81
79538;BME280;68989;52.032;5.152;2023-12-04T10:00:17;100848.15;;;7.73;54.79
79538;BME280;68989;52.032;5.152;2023-12-04T10:02:47;100845.13;;;7.73;54.34
79538;BME280;68989;52.032;5.152;2023-12-04T10:05:15;100838.16;;;7.72;54.26
79538;BME280;68989;52.032;5.152;2023-12-04T10:07:42;100836.63;;;7.72;53.93
79538;BME280;68989;52.032;5.152;2023-12-04T10:10:09;100835.93;;;7.72;54.20
79538;BME280;68989;52.032;5.152;2023-12-04T10:12:36;100829.30;;;7.73;54.43
79538;BME280;68989;52.032;5.152;2023-12-04T10:15:05;100824.55;;;7.75;54.22
79538;BME280;68989;52.032;5.152;2023-12-04T10:17:34;100821.57;;;7.77;54.59
79538;BME280;68989;52.032;5.152;2023-12-04T10:20:06;100816.05;;;7.76;54.37
79538;BME280;68989;52.032;5.152;2023-12-04T10:22:33;100805.73;;;7.77;54.35
79538;BME280;68989;52.032;5.152;2023-12-04T10:25:14;100804.08;;;7.76;54.10
79538;BME280;68989;52.032;5.152;2023-12-04T10:27:41;100799.25;;;7.76;53.96
79538;BME280;68989;52.032;5.152;2023-12-04T10:30:10;100797.70;;;7.76;54.05
79538;BME280;68989;52.032;5.152;2023-12-04T10:32:48;100792.88;;;7.79;54.28
79538;BME280;68989;52.032;5.152;2023-12-04T10:35:15;100787.75;;;7.81;54.12
79538;BME280;68989;52.032;5.152;2023-12-04T10:37:43;100780.57;;;7.76;53.72
79538;BME280;68989;52.032;5.152;2023-12-04T10:40:10;100776.43;;;7.79;54.29
79538;BME280;68989;52.032;5.152;2023-12-04T10:42:37;100772.10;;;7.84;54.49
79538;BME280;68989;52.032;5.152;2023-12-04T10:45:04;100769.10;;;7.86;54.35
79538;BME280;68989;52.032;5.152;2023-12-04T10:47:34;100759.01;;;7.90;54.16
79538;BME280;68989;52.032;5.152;2023-12-04T10:50:02;100752.53;;;7.92;54.06
79538;BME280;68989;52.032;5.152;2023-12-04T10:52:31;100747.36;;;7.89;53.54
79538;BME280;68989;52.032;5.152;2023-12-04T10:54:59;100743.17;;;7.90;53.75
79538;BME280;68989;52.032;5.152;2023-12-04T10:57:27;100736.56;;;7.92;53.80
79538;BME280;68989;52.032;5.152;2023-12-04T11:00:02;100731.32;;;7.95;53.79
79538;BME280;68989;52.032;5.152;2023-12-04T11:02:34;100732.71;;;7.98;53.72
79538;BME280;68989;52.032;5.152;2023-12-04T11:05:07;100728.00;;;7.96;53.24
79538;BME280;68989;52.032;5.152;2023-12-04T11:07:36;100725.00;;;7.97;53.40
79538;BME280;68989;52.032;5.152;2023-12-04T11:10:05;100719.97;;;8.01;53.95
79538;BME280;68989;52.032;5.152;2023-12-04T11:12:33;100719.04;;;8.04;53.98
79538;BME280;68989;52.032;5.152;2023-12-04T11:15:02;100711.86;;;8.09;54.08
79538;BME280;68989;52.032;5.152;2023-12-04T11:17:34;100708.84;;;8.13;54.14
79538;BME280;68989;52.032;5.152;2023-12-04T11:20:07;100704.23;;;8.16;54.04
79538;BME280;68989;52.032;5.152;2023-12-04T11:22:38;100698.97;;;8.18;54.04
79538;BME280;68989;52.032;5.152;2023-12-04T11:25:06;100696.43;;;8.21;53.87
79538;BME280;68989;52.032;5.152;2023-12-04T11:27:34;100692.57;;;8.22;53.69
79538;BME280;68989;52.032;5.152;2023-12-04T11:30:15;100689.35;;;8.25;54.01
79538;BME280;68989;52.032;5.152;2023-12-04T11:32:44;100691.30;;;8.23;53.13
79538;BME280;68989;52.032;5.152;2023-12-04T11:35:13;100686.55;;;8.25;53.58
79538;BME280;68989;52.032;5.152;2023-12-04T11:37:42;100688.87;;;8.26;53.22
79538;BME280;68989;52.032;5.152;2023-12-04T11:40:12;100691.66;;;8.23;53.12
79538;BME280;68989;52.032;5.152;2023-12-04T11:42:39;100687.86;;;8.25;53.62
79538;BME280;68989;52.032;5.152;2023-12-04T11:45:19;100686.64;;;8.28;53.66
79538;BME280;68989;52.032;5.152;2023-12-04T11:47:50;100685.13;;;8.32;53.69
79538;BME280;68989;52.032;5.152;2023-12-04T11:50:19;100687.50;;;8.35;53.76
79538;BME280;68989;52.032;5.152;2023-12-04T11:52:46;100687.10;;;8.40;53.80
79538;BME280;68989;52.032;5.152;2023-12-04T11:55:16;100685.82;;;8.42;53.60
79538;BME280;68989;52.032;5.152;2023-12-04T11:57:44;100681.85;;;8.44;53.34
79538;BME280;68989;52.032;5.152;2023-12-04T12:00:19;100678.42;;;8.45;53.21
79538;BME280;68989;52.032;5.152;2023-12-04T12:03:00;100674.80;;;8.50;53.51
79538;BME280;68989;52.032;5.152;2023-12-04T12:05:28;100668.12;;;8.56;53.58
79538;BME280;68989;52.032;5.152;2023-12-04T12:07:55;100667.47;;;8.56;53.34
79538;BME280;68989;52.032;5.152;2023-12-04T12:10:23;100664.17;;;8.59;53.41
79538;BME280;68989;52.032;5.152;2023-12-04T12:12:51;100661.61;;;8.62;53.42
79538;BME280;68989;52.032;5.152;2023-12-04T12:15:18;100654.75;;;8.62;53.05
79538;BME280;68989;52.032;5.152;2023-12-04T12:17:45;100650.52;;;8.60;52.70
79538;BME280;68989;52.032;5.152;2023-12-04T12:20:14;100647.51;;;8.60;53.09
79538;BME280;68989;52.032;5.152;2023-12-04T12:22:41;100643.04;;;8.61;52.97
79538;BME280;68989;52.032;5.152;2023-12-04T12:25:09;100639.78;;;8.60;53.05
79538;BME280;68989;52.032;5.152;2023-12-04T12:27:38;100631.87;;;8.59;53.08
79538;BME280;68989;52.032;5.152;2023-12-04T12:30:06;100627.73;;;8.58;52.84
79538;BME280;68989;52.032;5.152;2023-12-04T12:32:34;100628.71;;;8.60;53.33
79538;BME280;68989;52.032;5.152;2023-12-04T12:35:02;100623.14;;;8.64;53.59
79538;BME280;68989;52.032;5.152;2023-12-04T12:37:29;100620.78;;;8.65;53.44
79538;BME280;68989;52.032;5.152;2023-12-04T12:39:57;100619.21;;;8.64;53.11
79538;BME280;68989;52.032;5.152;2023-12-04T12:42:24;100612.81;;;8.65;53.14
79538;BME280;68989;52.032;5.152;2023-12-04T12:44:52;100609.64;;;8.62;53.13
79538;BME280;68989;52.032;5.152;2023-12-04T12:47:20;100603.08;;;8.63;53.19
79538;BME280;68989;52.032;5.152;2023-12-04T12:49:46;100593.94;;;8.65;53.17
79538;BME280;68989;52.032;5.152;2023-12-04T12:52:14;100588.60;;;8.64;52.87
79538;BME280;68989;52.032;5.152;2023-12-04T12:54:42;100584.26;;;8.67;53.30
79538;BME280;68989;52.032;5.152;2023-12-04T12:57:10;100579.96;;;8.73;53.63
79538;BME280;68989;52.032;5.152;2023-12-04T12:59:37;100573.50;;;8.78;53.60
79538;BME280;68989;52.032;5.152;2023-12-04T13:02:06;100569.30;;;8.78;53.26
79538;BME280;68989;52.032;5.152;2023-12-04T13:04:34;100566.68;;;8.78;53.37
79538;BME280;68989;52.032;5.152;2023-12-04T13:07:01;100562.76;;;8.75;53.02